Time;durP1;ratioP1;P1;durP2;ratioP2;P2;SDS_P1;SDS_P2;PMS_P1;PMS_P2;Temp;Humidity;BMP_temperature;BMP_pressure;BME280_temperature;BME280_humidity;BME280_pressure;Samples;Min_cycle;Max_cycle;Signal;HPM_P1;HPM_P2
2022/03/11 00:02:22;;;;;;;;;;;;;;;;;;5095382;28;20404;-72
2022/03/11 00:04:48;;;;;;;;;;;;;;;;;;5093618;28;20045;-73
2022/03/11 00:07:14;;;;;;;;;;;;;;;;;;5093979;28;19908;-73
2022/03/11 00:09:40;;;;;;;;;;;;;;;;;;5095252;28;19915;-72
2022/03/11 00:12:06;;;;;;;;;;;;;;;;;;5093513;28;20315;-72
2022/03/11 00:14:32;;;;;;;;;;;;;;;;;;5095260;28;19973;-72
2022/03/11 00:16:58;;;;;;;;;;;;;;;;;;5094733;28;19908;-73
2022/03/11 00:19:24;;;;;;;;;;;;;;;;;;5092999;28;20394;-73
2022/03/11 00:21:50;;;;;;;;;;;;;;;;;;5095122;28;19948;-73
2022/03/11 00:24:16;;;;;;;;;;;;;;;;;;5093641;28;20291;-73
2022/03/11 00:26:42;;;;;;;;;;;;;;;;;;5093286;28;19912;-73
2022/03/11 00:29:08;;;;;;;;;;;;;;;;;;5094901;28;20277;-73
2022/03/11 00:31:34;;;;;;;;;;;;;;;;;;5094854;28;20392;-73
2022/03/11 00:34:00;;;;;;;;;;;;;;;;;;5092849;28;19949;-73
2022/03/11 00:36:26;;;;;;;;;;;;;;;;;;5093560;28;19938;-73
2022/03/11 00:38:52;;;;;;;;;;;;;;;;;;5093048;28;19919;-73
2022/03/11 00:41:18;;;;;;;;;;;;;;;;;;5093669;28;19908;-73
2022/03/11 00:43:44;;;;;;;;;;;;;;;;;;5094647;28;19908;-73
2022/03/11 00:46:10;;;;;;;;;;;;;;;;;;5092956;28;19915;-72
2022/03/11 00:48:36;;;;;;;;;;;;;;;;;;5094676;28;19995;-73
2022/03/11 00:51:02;;;;;;;;;;;;;;;;;;5094948;28;19950;-73
2022/03/11 00:53:28;;;;;;;;;;;;;;;;;;5094494;28;20304;-73
2022/03/11 00:55:54;;;;;;;;;;;;;;;;;;5094430;28;19915;-74
2022/03/11 00:58:20;;;;;;;;;;;;;;;;;;5094511;28;19908;-73
2022/03/11 01:00:46;;;;;;;;;;;;;;;;;;5092637;28;20379;-73
2022/03/11 01:03:12;;;;;;;;;;;;;;;;;;5093103;28;19990;-72
2022/03/11 01:05:38;;;;;;;;;;;;;;;;;;5094575;28;19941;-72
2022/03/11 01:08:04;;;;;;;;;;;;;;;;;;5094025;28;19908;-72
2022/03/11 01:10:29;;;;;;;;;;;;;;;;;;5092904;28;19908;-72
2022/03/11 01:12:56;;;;;;;;;;;;;;;;;;5092782;28;20379;-72
2022/03/11 01:15:22;;;;;;;;;;;;;;;;;;5093767;28;20383;-72
2022/03/11 01:17:48;;;;;;;;;;;;;;;;;;5092785;28;19908;-72
2022/03/11 01:20:14;;;;;;;;;;;;;;;;;;5092765;28;20045;-72
2022/03/11 01:22:40;;;;;;;;;;;;;;;;;;5093606;28;19978;-72
2022/03/11 01:25:06;;;;;;;;;;;;;;;;;;5094211;28;19934;-73
2022/03/11 01:27:32;;;;;;;;;;;;;;;;;;5092671;28;19919;-73
2022/03/11 01:29:58;;;;;;;;;;;;;;;;;;5092266;28;20275;-73
2022/03/11 01:32:24;;;;;;;;;;;;;;;;;;5094350;28;19908;-73
2022/03/11 01:34:50;;;;;;;;;;;;;;;;;;5092391;28;20318;-73
2022/03/11 01:37:16;;;;;;;;;;;;;;;;;;5092136;28;19909;-73
2022/03/11 01:39:42;;;;;;;;;;;;;;;;;;5092607;28;19915;-73
2022/03/11 01:42:08;;;;;;;;;;;;;;;;;;5093674;28;20375;-73
2022/03/11 01:44:34;;;;;;;;;;;;;;;;;;5093916;28;19908;-73
2022/03/11 01:47:00;;;;;;;;;;;;;;;;;;5092508;28;19915;-74
2022/03/11 01:49:26;;;;;;;;;;;;;;;;;;5093706;28;19908;-74
2022/03/11 01:51:52;;;;;;;;;;;;;;;;;;5093720;28;19947;-73
2022/03/11 01:54:18;;;;;;;;;;;;;;;;;;5092335;28;19923;-73
2022/03/11 01:56:44;;;;;;;;;;;;;;;;;;5093298;28;19912;-72
2022/03/11 01:59:13;;;;;;;;;;;;;;;;;;5093976;28;19908;-73
2022/03/11 02:01:39;;;;;;;;;;;;;;;;;;5092372;28;20014;-73
2022/03/11 02:04:05;;;;;;;;;;;;;;;;;;5093243;28;20372;-72
2022/03/11 02:06:31;;;;;;;;;;;;;;;;;;5093599;28;20410;-72
2022/03/11 02:08:58;;;;;;;;;;;;;;;;;;5093832;28;19908;-72
2022/03/11 02:11:24;;;;;;;;;;;;;;;;;;5093370;28;19957;-72
2022/03/11 02:13:50;;;;;;;;;;;;;;;;;;5093446;28;19927;-72
2022/03/11 02:16:16;;;;;;;;;;;;;;;;;;5092243;28;19908;-72
2022/03/11 02:18:42;;;;;;;;;;;;;;;;;;5093148;28;19954;-73
2022/03/11 02:21:09;;;;;;;;;;;;;;;;;;5092212;28;19957;-72
2022/03/11 02:23:35;;;;;;;;;;;;;;;;;;5093550;28;20314;-72
2022/03/11 02:26:01;;;;;;;;;;;;;;;;;;5091771;28;19912;-72
2022/03/11 02:28:27;;;;;;;;;;;;;;;;;;5092246;28;19948;-72
2022/03/11 02:30:53;;;;;;;;;;;;;;;;;;5093545;28;19908;-72
2022/03/11 02:33:19;;;;;;;;;;;;;;;;;;5092704;28;19928;-72
2022/03/11 02:35:45;;;;;;;;;;;;;;;;;;5075206;28;19908;-72
2022/03/11 02:38:11;;;;;;;;;;;;;;;;;;5075163;28;19912;-73
2022/03/11 02:40:37;;;;;;;;;;;;;;;;;;5093389;28;19908;-72
2022/03/11 02:43:03;;;;;;;;;;;;;;;;;;5078861;28;19908;-73
2022/03/11 02:45:29;;;;;;;;;;;;;;;;;;5078625;28;19915;-72
2022/03/11 02:47:55;;;;;;;;;;;;;;;;;;5078681;28;19956;-73
2022/03/11 02:50:21;;;;;;;;;;;;;;;;;;5078663;28;19908;-72
2022/03/11 02:52:47;;;;;;;;;;;;;;;;;;5096431;28;19915;-72
2022/03/11 02:55:13;;;;;;;;;;;;;;;;;;5096650;28;20368;-73
2022/03/11 02:57:39;;;;;;;;;;;;;;;;;;5096633;28;19908;-72
2022/03/11 03:00:06;;;;;;;;;;;;;;;;;;5096278;28;19985;-73
2022/03/11 03:02:32;;;;;;;;;;;;;;;;;;5096689;28;19908;-72
2022/03/11 03:04:58;;;;;;;;;;;;;;;;;;5078378;28;20360;-73
2022/03/11 03:07:24;;;;;;;;;;;;;;;;;;5077941;28;19908;-72
2022/03/11 03:09:50;;;;;;;;;;;;;;;;;;5096517;28;19908;-72
2022/03/11 03:12:16;;;;;;;;;;;;;;;;;;5078346;28;19999;-72
2022/03/11 03:14:42;;;;;;;;;;;;;;;;;;5095970;28;19920;-73
2022/03/11 03:17:08;;;;;;;;;;;;;;;;;;5096614;28;19953;-72
2022/03/11 03:19:35;;;;;;;;;;;;;;;;;;5096456;28;19908;-72
2022/03/11 03:22:01;;;;;;;;;;;;;;;;;;5095938;28;20379;-72
2022/03/11 03:24:27;;;;;;;;;;;;;;;;;;5096382;28;19919;-72
2022/03/11 03:26:55;;;;;;;;;;;;;;;;;;5078058;28;19915;-72
2022/03/11 03:29:21;;;;;;;;;;;;;;;;;;5095625;28;19912;-72
2022/03/11 03:31:47;;;;;;;;;;;;;;;;;;5096072;28;19916;-72
2022/03/11 03:34:13;;;;;;;;;;;;;;;;;;5089177;28;19919;-72
2022/03/11 03:36:39;;;;;;;;;;;;;;;;;;5094284;28;20391;-72
2022/03/11 03:39:05;;;;;;;;;;;;;;;;;;5095888;28;19908;-72
2022/03/11 03:41:31;;;;;;;;;;;;;;;;;;5095863;28;19919;-72
2022/03/11 03:43:57;;;;;;;;;;;;;;;;;;5095468;28;20275;-72
2022/03/11 03:46:23;;;;;;;;;;;;;;;;;;5094362;28;19916;-72
2022/03/11 03:48:49;;;;;;;;;;;;;;;;;;5093958;28;19912;-72
2022/03/11 03:51:15;;;;;;;;;;;;;;;;;;5095646;28;19953;-72
2022/03/11 03:53:41;;;;;;;;;;;;;;;;;;5094204;28;20299;-72
2022/03/11 03:56:07;;;;;;;;;;;;;;;;;;5095186;28;19959;-72
2022/03/11 03:58:33;;;;;;;;;;;;;;;;;;5095642;28;19908;-72
2022/03/11 04:00:59;;;;;;;;;;;;;;;;;;5095400;28;20003;-72
2022/03/11 04:03:25;;;;;;;;;;;;;;;;;;5095037;28;19908;-72
2022/03/11 04:05:51;;;;;;;;;;;;;;;;;;5094124;28;19918;-72
2022/03/11 04:08:17;;;;;;;;;;;;;;;;;;5094032;28;19973;-72
2022/03/11 04:10:43;;;;;;;;;;;;;;;;;;5094840;28;20288;-72
2022/03/11 04:13:09;;;;;;;;;;;;;;;;;;5095119;28;19915;-72
2022/03/11 04:15:35;;;;;;;;;;;;;;;;;;5093906;28;20368;-72
2022/03/11 04:18:01;;;;;;;;;;;;;;;;;;5094916;28;19918;-72
2022/03/11 04:20:27;;;;;;;;;;;;;;;;;;5095018;28;19987;-72
2022/03/11 04:22:54;;;;;;;;;;;;;;;;;;5095053;28;20007;-72
2022/03/11 04:25:20;;;;;;;;;;;;;;;;;;5093300;28;20427;-72
2022/03/11 04:27:46;;;;;;;;;;;;;;;;;;5094959;28;19936;-72
2022/03/11 04:30:12;;;;;;;;;;;;;;;;;;5094883;28;19951;-72
2022/03/11 04:32:38;;;;;;;;;;;;;;;;;;5093035;28;20432;-72
2022/03/11 04:35:04;;;;;;;;;;;;;;;;;;5094797;28;19916;-72
2022/03/11 04:37:30;;;;;;;;;;;;;;;;;;5076716;28;20330;-72
2022/03/11 04:39:57;;;;;;;;;;;;;;;;;;5076134;28;19912;-72
2022/03/11 04:42:23;;;;;;;;;;;;;;;;;;5076669;28;20306;-72
2022/03/11 04:44:49;;;;;;;;;;;;;;;;;;5076471;28;19964;-72
2022/03/11 04:47:15;;;;;;;;;;;;;;;;;;5076482;28;19912;-72
2022/03/11 04:49:41;;;;;;;;;;;;;;;;;;5076417;28;19912;-72
2022/03/11 04:52:07;;;;;;;;;;;;;;;;;;5094168;28;19908;-72
2022/03/11 04:54:33;;;;;;;;;;;;;;;;;;5094421;28;19962;-72
2022/03/11 04:56:59;;;;;;;;;;;;;;;;;;5076350;28;19912;-72
2022/03/11 04:59:26;;;;;;;;;;;;;;;;;;5075810;28;19955;-72
2022/03/11 05:01:52;;;;;;;;;;;;;;;;;;5094331;28;19951;-72
2022/03/11 05:04:18;;;;;;;;;;;;;;;;;;5093901;28;19909;-72
2022/03/11 05:06:44;;;;;;;;;;;;;;;;;;5075575;28;19940;-72
2022/03/11 05:09:09;;;;;;;;;;;;;;;;;;5094390;28;19990;-72
2022/03/11 05:11:36;;;;;;;;;;;;;;;;;;5094195;28;19939;-72
2022/03/11 05:14:02;;;;;;;;;;;;;;;;;;5075631;28;19916;-72
2022/03/11 05:16:28;;;;;;;;;;;;;;;;;;5075921;28;19908;-72
2022/03/11 05:18:54;;;;;;;;;;;;;;;;;;5075906;28;20421;-72
2022/03/11 05:21:20;;;;;;;;;;;;;;;;;;5075522;28;19908;-73
2022/03/11 05:23:46;;;;;;;;;;;;;;;;;;5094330;28;20275;-72
2022/03/11 05:26:24;;;;;;;;;;;;;;;;;;5094082;28;19908;-72
2022/03/11 05:28:51;;;;;;;;;;;;;;;;;;5093679;28;19962;-72
2022/03/11 05:31:17;;;;;;;;;;;;;;;;;;5093935;28;19908;-73
2022/03/11 05:33:43;;;;;;;;;;;;;;;;;;5082759;28;19999;-72
2022/03/11 05:36:09;;;;;;;;;;;;;;;;;;5093654;28;19935;-74
2022/03/11 05:38:35;;;;;;;;;;;;;;;;;;5092568;28;20321;-73
2022/03/11 05:41:01;;;;;;;;;;;;;;;;;;5093989;28;19908;-72
2022/03/11 05:43:27;;;;;;;;;;;;;;;;;;5093340;28;19982;-76
2022/03/11 05:45:53;;;;;;;;;;;;;;;;;;5092558;28;20419;-75
2022/03/11 05:48:19;;;;;;;;;;;;;;;;;;5093634;28;19991;-74
2022/03/11 05:50:45;;;;;;;;;;;;;;;;;;5093764;28;19912;-74
2022/03/11 05:53:11;;;;;;;;;;;;;;;;;;5093672;28;19962;-74
2022/03/11 05:55:37;;;;;;;;;;;;;;;;;;5093555;28;19915;-73
2022/03/11 05:58:03;;;;;;;;;;;;;;;;;;5090507;28;20007;-74
2022/03/11 06:00:28;;;;;;;;;;;;;;;;;;5091995;28;20508;-74
2022/03/11 06:02:54;;;;;;;;;;;;;;;;;;5093288;28;19908;-74
2022/03/11 06:05:20;;;;;;;;;;;;;;;;;;5093692;28;19908;-74
2022/03/11 06:07:46;;;;;;;;;;;;;;;;;;5092763;28;19915;-73
2022/03/11 06:10:12;;;;;;;;;;;;;;;;;;5091596;28;19912;-74
2022/03/11 06:12:38;;;;;;;;;;;;;;;;;;5093210;28;19999;-72
2022/03/11 06:15:05;;;;;;;;;;;;;;;;;;5092159;28;19920;-75
2022/03/11 06:17:31;;;;;;;;;;;;;;;;;;5096525;28;19915;-73
2022/03/11 06:19:57;;;;;;;;;;;;;;;;;;5098330;28;19908;-73
2022/03/11 06:22:23;;;;;;;;;;;;;;;;;;5112882;28;19915;-72
2022/03/11 06:24:49;;;;;;;;;;;;;;;;;;5094794;28;19909;-77
2022/03/11 06:27:15;;;;;;;;;;;;;;;;;;5090017;28;20002;-75
2022/03/11 06:29:41;;;;;;;;;;;;;;;;;;5094941;28;19908;-73
2022/03/11 06:32:07;;;;;;;;;;;;;;;;;;5095965;28;20326;-74
2022/03/11 06:34:33;;;;;;;;;;;;;;;;;;5094982;28;20014;-74
2022/03/11 06:36:59;;;;;;;;;;;;;;;;;;5095383;28;19995;-77
2022/03/11 06:39:25;;;;;;;;;;;;;;;;;;5095196;28;19950;-75
2022/03/11 06:41:51;;;;;;;;;;;;;;;;;;5095218;28;19908;-76
2022/03/11 06:44:18;;;;;;;;;;;;;;;;;;5096161;28;19996;-75
2022/03/11 06:46:44;;;;;;;;;;;;;;;;;;5096447;28;20264;-77
2022/03/11 06:49:11;;;;;;;;;;;;;;;;;;5095151;28;20363;-78
2022/03/11 06:51:38;;;;;;;;;;;;;;;;;;5096086;28;20318;-78
2022/03/11 06:54:06;;;;;;;;;;;;;;;;;;5095183;28;19939;-79
2022/03/11 06:56:32;;;;;;;;;;;;;;;;;;5086108;28;20007;-77
2022/03/11 06:58:59;;;;;;;;;;;;;;;;;;5075804;28;19961;-78
2022/03/11 07:01:25;;;;;;;;;;;;;;;;;;5074767;28;19915;-77
2022/03/11 07:03:51;;;;;;;;;;;;;;;;;;5074789;28;20326;-77
2022/03/11 07:06:17;;;;;;;;;;;;;;;;;;5079582;28;19908;-75
2022/03/11 07:08:43;;;;;;;;;;;;;;;;;;5096104;28;19912;-76
2022/03/11 07:11:09;;;;;;;;;;;;;;;;;;5094609;28;20319;-76
2022/03/11 07:13:35;;;;;;;;;;;;;;;;;;5094259;28;19946;-75
2022/03/11 07:16:01;;;;;;;;;;;;;;;;;;5098427;28;19912;-78
2022/03/11 07:18:27;;;;;;;;;;;;;;;;;;5101450;28;19908;-77
2022/03/11 07:20:53;;;;;;;;;;;;;;;;;;5090337;28;19908;-76
2022/03/11 07:23:19;;;;;;;;;;;;;;;;;;5089632;28;19930;-76
2022/03/11 07:25:45;;;;;;;;;;;;;;;;;;5094153;28;19909;-79
2022/03/11 07:28:11;;;;;;;;;;;;;;;;;;5091632;28;19958;-77
2022/03/11 07:30:38;;;;;;;;;;;;;;;;;;5094127;28;20054;-73
2022/03/11 07:33:06;;;;;;;;;;;;;;;;;;5093119;28;19920;-77
2022/03/11 07:35:32;;;;;;;;;;;;;;;;;;5083702;28;19920;-75
2022/03/11 07:37:58;;;;;;;;;;;;;;;;;;5091390;28;19915;-74
2022/03/11 07:40:24;;;;;;;;;;;;;;;;;;5091683;28;19908;-77
2022/03/11 07:42:50;;;;;;;;;;;;;;;;;;5090431;28;20344;-74
2022/03/11 07:45:16;;;;;;;;;;;;;;;;;;5088713;28;19912;-76
2022/03/11 07:47:42;;;;;;;;;;;;;;;;;;5089933;28;19958;-74
2022/03/11 07:50:08;;;;;;;;;;;;;;;;;;5091281;28;20325;-76
2022/03/11 07:52:34;;;;;;;;;;;;;;;;;;5092338;28;19908;-78
2022/03/11 07:55:00;;;;;;;;;;;;;;;;;;5093156;28;19931;-75
2022/03/11 07:57:26;;;;;;;;;;;;;;;;;;5089100;28;19912;-78
2022/03/11 07:59:52;;;;;;;;;;;;;;;;;;5092729;28;20287;-78
2022/03/11 08:02:18;;;;;;;;;;;;;;;;;;5093710;28;19915;-79
2022/03/11 08:04:44;;;;;;;;;;;;;;;;;;5096557;28;19908;-78
2022/03/11 08:07:11;;;;;;;;;;;;;;;;;;5095003;28;19947;-76
2022/03/11 08:09:38;;;;;;;;;;;;;;;;;;5089480;28;19908;-74
2022/03/11 08:12:04;;;;;;;;;;;;;;;;;;5074672;28;19908;-75
2022/03/11 08:14:31;;;;;;;;;;;;;;;;;;5074730;28;20005;-76
2022/03/11 08:16:58;;;;;;;;;;;;;;;;;;5073234;28;20327;-75
2022/03/11 08:19:24;;;;;;;;;;;;;;;;;;5074681;28;19999;-77
2022/03/11 08:21:51;;;;;;;;;;;;;;;;;;5073329;28;20399;-78
2022/03/11 08:24:17;;;;;;;;;;;;;;;;;;5073544;28;19963;-77
2022/03/11 08:26:43;;;;;;;;;;;;;;;;;;5071205;28;19912;-75
2022/03/11 08:29:09;;;;;;;;;;;;;;;;;;5073632;28;19920;-78
2022/03/11 08:31:36;;;;;;;;;;;;;;;;;;5072809;28;20279;-74
2022/03/11 08:34:03;;;;;;;;;;;;;;;;;;5072685;28;19950;-77
2022/03/11 08:36:29;;;;;;;;;;;;;;;;;;5086699;28;19923;-77
2022/03/11 08:38:55;;;;;;;;;;;;;;;;;;5091870;28;19915;-77
2022/03/11 08:41:22;;;;;;;;;;;;;;;;;;5093218;28;19912;-77
2022/03/11 08:43:49;;;;;;;;;;;;;;;;;;5092668;28;19909;-76
2022/03/11 08:46:15;;;;;;;;;;;;;;;;;;5092719;28;19931;-75
2022/03/11 08:48:44;;;;;;;;;;;;;;;;;;5092601;28;20375;-75
2022/03/11 08:51:10;;;;;;;;;;;;;;;;;;5088675;28;19915;-76
2022/03/11 08:53:36;;;;;;;;;;;;;;;;;;5087922;28;19919;-74
2022/03/11 08:56:02;;;;;;;;;;;;;;;;;;5091730;28;19916;-74
2022/03/11 08:58:27;;;;;;;;;;;;;;;;;;5090460;28;20360;-80
2022/03/11 09:00:53;;;;;;;;;;;;;;;;;;5089092;28;19915;-75
2022/03/11 09:03:19;;;;;;;;;;;;;;;;;;5091043;28;19908;-74
2022/03/11 09:05:45;;;;;;;;;;;;;;;;;;5094539;28;19908;-72
2022/03/11 09:08:11;;;;;;;;;;;;;;;;;;5075677;28;19912;-70
2022/03/11 09:10:37;;;;;;;;;;;;;;;;;;5092249;28;19963;-71
2022/03/11 09:13:03;;;;;;;;;;;;;;;;;;5091439;28;20362;-72
2022/03/11 09:15:29;;;;;;;;;;;;;;;;;;5072855;28;19950;-74
2022/03/11 09:17:55;;;;;;;;;;;;;;;;;;5072927;28;19912;-72
2022/03/11 09:20:21;;;;;;;;;;;;;;;;;;5071541;28;19950;-71
2022/03/11 09:22:47;;;;;;;;;;;;;;;;;;5084136;28;20219;-71
2022/03/11 09:25:14;;;;;;;;;;;;;;;;;;5091902;28;19964;-72
2022/03/11 09:27:40;;;;;;;;;;;;;;;;;;5090259;28;20375;-70
2022/03/11 09:30:06;;;;;;;;;;;;;;;;;;5090174;28;19915;-74
2022/03/11 09:32:32;;;;;;;;;;;;;;;;;;5091639;28;20384;-72
2022/03/11 09:34:59;;;;;;;;;;;;;;;;;;5090757;28;20011;-74
2022/03/11 09:37:25;;;;;;;;;;;;;;;;;;5078304;28;20632;-73
2022/03/11 09:39:51;;;;;;;;;;;;;;;;;;5071165;28;20070;-73
2022/03/11 09:42:17;;;;;;;;;;;;;;;;;;5069922;28;19918;-72
2022/03/11 09:44:43;;;;;;;;;;;;;;;;;;5070885;28;20349;-73
2022/03/11 09:47:09;;;;;;;;;;;;;;;;;;5072310;28;19909;-73
2022/03/11 09:49:35;;;;;;;;;;;;;;;;;;5072782;28;19916;-70
2022/03/11 09:52:01;;;;;;;;;;;;;;;;;;5075083;28;19913;-74
2022/03/11 09:54:27;;;;;;;;;;;;;;;;;;5082825;28;20288;-72
2022/03/11 09:56:53;;;;;;;;;;;;;;;;;;5092417;28;19908;-72
2022/03/11 09:59:19;;;;;;;;;;;;;;;;;;5093857;28;19908;-73
2022/03/11 10:01:45;;;;;;;;;;;;;;;;;;5095002;28;20327;-71
2022/03/11 10:04:11;;;;;;;;;;;;;;;;;;5096017;28;19939;-72
2022/03/11 10:06:38;;;;;;;;;;;;;;;;;;5097277;28;19912;-74
2022/03/11 10:09:04;;;;;;;;;;;;;;;;;;5096453;28;19912;-73
2022/03/11 10:11:30;;;;;;;;;;;;;;;;;;5095741;28;19915;-73
2022/03/11 10:13:56;;;;;;;;;;;;;;;;;;5094943;28;19916;-71
2022/03/11 10:16:22;;;;;;;;;;;;;;;;;;5093833;28;19908;-73
2022/03/11 10:18:48;;;;;;;;;;;;;;;;;;5093070;28;20311;-73
2022/03/11 10:21:14;;;;;;;;;;;;;;;;;;5094013;28;19908;-73
2022/03/11 10:23:40;;;;;;;;;;;;;;;;;;5092411;28;19916;-74
2022/03/11 10:26:06;;;;;;;;;;;;;;;;;;5092468;28;19920;-71
2022/03/11 10:28:32;;;;;;;;;;;;;;;;;;5094438;28;19916;-72
2022/03/11 10:30:58;;;;;;;;;;;;;;;;;;5092969;28;19908;-73
2022/03/11 10:33:25;;;;;;;;;;;;;;;;;;5096425;28;20378;-74
2022/03/11 10:35:51;;;;;;;;;;;;;;;;;;5096771;28;19931;-73
2022/03/11 10:38:17;;;;;;;;;;;;;;;;;;5096213;28;20253;-74
2022/03/11 10:40:43;;;;;;;;;;;;;;;;;;5086549;28;19967;-75
2022/03/11 10:43:09;;;;;;;;;;;;;;;;;;5076186;28;19916;-74
2022/03/11 10:45:35;;;;;;;;;;;;;;;;;;5056402;28;19909;-72
2022/03/11 10:48:01;;;;;;;;;;;;;;;;;;5071246;28;20307;-73
2022/03/11 10:50:27;;;;;;;;;;;;;;;;;;5075298;28;19909;-73
2022/03/11 10:52:55;;;;;;;;;;;;;;;;;;5075436;28;20315;-74
2022/03/11 10:55:22;;;;;;;;;;;;;;;;;;5056660;28;19921;-73
2022/03/11 10:57:49;;;;;;;;;;;;;;;;;;5054585;28;19958;-75
2022/03/11 11:00:15;;;;;;;;;;;;;;;;;;5075076;28;20280;-75
2022/03/11 11:02:41;;;;;;;;;;;;;;;;;;5074304;28;20016;-72
2022/03/11 11:05:07;;;;;;;;;;;;;;;;;;5073813;28;19915;-75
2022/03/11 11:07:32;;;;;;;;;;;;;;;;;;5075690;28;20280;-73
2022/03/11 11:09:58;;;;;;;;;;;;;;;;;;5078374;28;19912;-71
2022/03/11 11:12:24;;;;;;;;;;;;;;;;;;5077353;28;20454;-72
2022/03/11 11:14:50;;;;;;;;;;;;;;;;;;5092408;28;19916;-73
2022/03/11 11:17:16;;;;;;;;;;;;;;;;;;5056032;28;19916;-73
2022/03/11 11:19:42;;;;;;;;;;;;;;;;;;5054927;28;20276;-72
2022/03/11 11:22:08;;;;;;;;;;;;;;;;;;5067282;28;19952;-71
2022/03/11 11:24:34;;;;;;;;;;;;;;;;;;5054689;28;19916;-75
2022/03/11 11:27:00;;;;;;;;;;;;;;;;;;5053741;28;19913;-71
2022/03/11 11:29:26;;;;;;;;;;;;;;;;;;5053878;28;20361;-70
2022/03/11 11:31:52;;;;;;;;;;;;;;;;;;5072912;28;19908;-71
2022/03/11 11:34:18;;;;;;;;;;;;;;;;;;5058102;28;20500;-70
2022/03/11 11:36:44;;;;;;;;;;;;;;;;;;5094658;28;19994;-71
2022/03/11 11:39:11;;;;;;;;;;;;;;;;;;5074248;28;19912;-72
2022/03/11 11:41:37;;;;;;;;;;;;;;;;;;5091788;28;19908;-73
2022/03/11 11:44:03;;;;;;;;;;;;;;;;;;5074985;28;19909;-70
2022/03/11 11:46:29;;;;;;;;;;;;;;;;;;5073239;28;19930;-69
2022/03/11 11:48:55;;;;;;;;;;;;;;;;;;5081269;28;20360;-69
2022/03/11 11:51:21;;;;;;;;;;;;;;;;;;5094466;28;19915;-70
2022/03/11 11:53:47;;;;;;;;;;;;;;;;;;5079613;28;19916;-72
2022/03/11 11:56:13;;;;;;;;;;;;;;;;;;5072645;28;19908;-72
2022/03/11 11:58:39;;;;;;;;;;;;;;;;;;5055896;28;19915;-71
2022/03/11 12:01:05;;;;;;;;;;;;;;;;;;5072984;28;20364;-71
2022/03/11 12:03:31;;;;;;;;;;;;;;;;;;5074807;28;19915;-72
2022/03/11 12:05:57;;;;;;;;;;;;;;;;;;5054895;28;20368;-71
2022/03/11 12:08:23;;;;;;;;;;;;;;;;;;5073404;28;19955;-72
2022/03/11 12:10:49;;;;;;;;;;;;;;;;;;5056680;28;19944;-72
2022/03/11 12:13:15;;;;;;;;;;;;;;;;;;5072947;28;19908;-72
2022/03/11 12:15:41;;;;;;;;;;;;;;;;;;5056165;28;19935;-70
2022/03/11 12:18:07;;;;;;;;;;;;;;;;;;5073112;28;19951;-71
2022/03/11 12:20:33;;;;;;;;;;;;;;;;;;5054916;28;19908;-72
2022/03/11 12:23:05;;;;;;;;;;;;;;;;;;5073639;28;19908;-72
2022/03/11 12:25:31;;;;;;;;;;;;;;;;;;5073782;28;19920;-71
2022/03/11 12:30:05;;;;;;;;;;;;;;;;;;5110039;27;19912;-70
2022/03/11 12:33:36;;;;;;;;;;;;;;;;;;5089561;27;19923;-69
2022/03/11 12:36:02;;;;;;;;;;;;;;;;;;5090573;28;19923;-71
2022/03/11 12:38:28;;;;;;;;;;;;;;;;;;5090514;28;19915;-70
2022/03/11 12:40:54;;;;;;;;;;;;;;;;;;5090627;28;19908;-70
2022/03/11 12:43:21;;;;;;;;;;;;;;;;;;5090425;28;19908;-69
2022/03/11 12:45:47;;;;;;;;;;;;;;;;;;5089508;28;19908;-71
2022/03/11 12:48:13;;;;;;;;;;;;;;;;;;5089158;28;19916;-70
2022/03/11 12:50:39;;;;;;;;;;;;;;;;;;5088242;28;19916;-70
2022/03/11 12:53:08;;;;;;;;;;;;;;;;;;5089802;28;19923;-72
2022/03/11 12:55:34;;;;;;;;;;;;;;;;;;5088243;28;19912;-69
2022/03/11 12:58:00;;;;;;;;;;;;;;;;;;5088758;28;19943;-71
2022/03/11 13:00:26;;;;;;;;;;;;;;;;;;5088615;28;19985;-71
2022/03/11 13:02:53;;;;;;;;;;;;;;;;;;5085519;28;20379;-69
2022/03/11 13:05:19;;;;;;;;;;;;;;;;;;5087784;28;19983;-70
2022/03/11 13:07:45;;;;;;;;;;;;;;;;;;5087719;28;19908;-69
2022/03/11 13:10:11;;;;;;;;;;;;;;;;;;5088708;28;20003;-69
2022/03/11 13:12:37;;;;;;;;;;;;;;;;;;5087301;28;19916;-69
2022/03/11 13:15:03;;;;;;;;;;;;;;;;;;5086533;28;19934;-70
2022/03/11 13:17:29;;;;;;;;;;;;;;;;;;5082737;28;19961;-70
2022/03/11 13:19:55;;;;;;;;;;;;;;;;;;5089567;28;20384;-71
2022/03/11 13:22:21;;;;;;;;;;;;;;;;;;5087311;28;19915;-72
2022/03/11 13:24:47;;;;;;;;;;;;;;;;;;5087602;28;20359;-70
2022/03/11 13:27:13;;;;;;;;;;;;;;;;;;5087103;28;19969;-70
2022/03/11 13:29:39;;;;;;;;;;;;;;;;;;5089021;28;20379;-70
2022/03/11 13:32:05;;;;;;;;;;;;;;;;;;5086135;28;19927;-71
2022/03/11 13:34:34;;;;;;;;;;;;;;;;;;5087749;28;20380;-70
2022/03/11 13:37:00;;;;;;;;;;;;;;;;;;5086466;28;19947;-71
2022/03/11 13:39:26;;;;;;;;;;;;;;;;;;5087985;28;19951;-71
2022/03/11 13:41:52;;;;;;;;;;;;;;;;;;5087464;28;19908;-70
2022/03/11 13:44:18;;;;;;;;;;;;;;;;;;5077928;28;19909;-71
2022/03/11 13:46:44;;;;;;;;;;;;;;;;;;5076015;28;20388;-70
2022/03/11 13:49:10;;;;;;;;;;;;;;;;;;5074930;28;20384;-71
2022/03/11 13:51:36;;;;;;;;;;;;;;;;;;5076277;28;19919;-70
2022/03/11 13:54:02;;;;;;;;;;;;;;;;;;5074657;28;19912;-71
2022/03/11 13:56:29;;;;;;;;;;;;;;;;;;5076157;28;19915;-72
2022/03/11 13:58:55;;;;;;;;;;;;;;;;;;5075813;28;19909;-71
2022/03/11 14:01:21;;;;;;;;;;;;;;;;;;5074417;28;19914;-71
2022/03/11 14:03:47;;;;;;;;;;;;;;;;;;5074708;28;20277;-70
2022/03/11 14:06:13;;;;;;;;;;;;;;;;;;5075902;28;19923;-70
2022/03/11 14:08:39;;;;;;;;;;;;;;;;;;5074377;28;20387;-70
2022/03/11 14:11:06;;;;;;;;;;;;;;;;;;5075819;28;20414;-71
2022/03/11 14:13:32;;;;;;;;;;;;;;;;;;5076296;28;19917;-70
2022/03/11 14:15:58;;;;;;;;;;;;;;;;;;5074051;28;20004;-71
2022/03/11 14:18:25;;;;;;;;;;;;;;;;;;5075671;28;20364;-70
2022/03/11 14:20:52;;;;;;;;;;;;;;;;;;5075750;28;19915;-71
2022/03/11 14:23:20;;;;;;;;;;;;;;;;;;5075157;28;19916;-72
2022/03/11 14:25:46;;;;;;;;;;;;;;;;;;5075709;28;19955;-71
2022/03/11 14:28:12;;;;;;;;;;;;;;;;;;5075635;28;19917;-71
2022/03/11 14:30:38;;;;;;;;;;;;;;;;;;5075422;28;19987;-71
2022/03/11 14:33:04;;;;;;;;;;;;;;;;;;5075300;28;19943;-71
2022/03/11 14:35:30;;;;;;;;;;;;;;;;;;5075505;28;19908;-71
2022/03/11 14:37:56;;;;;;;;;;;;;;;;;;5073875;28;19940;-71
2022/03/11 14:40:22;;;;;;;;;;;;;;;;;;5074417;28;19916;-71
2022/03/11 14:42:48;;;;;;;;;;;;;;;;;;5074167;28;19947;-71
2022/03/11 14:45:14;;;;;;;;;;;;;;;;;;5075496;28;19970;-71
2022/03/11 14:47:40;;;;;;;;;;;;;;;;;;5074027;28;20315;-71
2022/03/11 14:50:06;;;;;;;;;;;;;;;;;;5073244;28;19912;-71
2022/03/11 14:52:32;;;;;;;;;;;;;;;;;;5075171;28;19916;-70
2022/03/11 14:54:58;;;;;;;;;;;;;;;;;;5074098;28;20292;-71
2022/03/11 14:57:26;;;;;;;;;;;;;;;;;;5072660;28;19934;-71
2022/03/11 14:59:52;;;;;;;;;;;;;;;;;;5074245;28;19916;-71
2022/03/11 15:02:18;;;;;;;;;;;;;;;;;;5075497;28;19916;-70
2022/03/11 15:04:44;;;;;;;;;;;;;;;;;;5073313;28;19909;-70
2022/03/11 15:07:11;;;;;;;;;;;;;;;;;;5074687;28;19915;-70
2022/03/11 15:09:37;;;;;;;;;;;;;;;;;;5075042;28;19915;-70
2022/03/11 15:12:03;;;;;;;;;;;;;;;;;;5074344;28;19916;-70
2022/03/11 15:14:29;;;;;;;;;;;;;;;;;;5073709;28;19908;-72
2022/03/11 15:16:55;;;;;;;;;;;;;;;;;;5074818;28;20288;-71
2022/03/11 15:19:21;;;;;;;;;;;;;;;;;;5074379;28;19987;-71
2022/03/11 15:21:47;;;;;;;;;;;;;;;;;;5074646;28;19951;-72
2022/03/11 15:24:15;;;;;;;;;;;;;;;;;;5074639;28;19909;-71
2022/03/11 15:26:41;;;;;;;;;;;;;;;;;;5074178;28;19908;-71
2022/03/11 15:29:07;;;;;;;;;;;;;;;;;;5074467;28;19908;-71
2022/03/11 15:31:33;;;;;;;;;;;;;;;;;;5070883;28;20358;-72
2022/03/11 15:33:59;;;;;;;;;;;;;;;;;;5073797;28;20415;-72
2022/03/11 15:36:26;;;;;;;;;;;;;;;;;;5072884;28;19959;-71
2022/03/11 15:38:52;;;;;;;;;;;;;;;;;;5074115;28;19908;-71
2022/03/11 15:41:18;;;;;;;;;;;;;;;;;;5073798;28;19913;-72
2022/03/11 15:43:44;;;;;;;;;;;;;;;;;;5074108;28;19923;-72
2022/03/11 15:46:10;;;;;;;;;;;;;;;;;;5072361;28;19909;-74
2022/03/11 15:48:36;;;;;;;;;;;;;;;;;;5070518;28;19909;-74
2022/03/11 15:51:02;;;;;;;;;;;;;;;;;;5072435;28;19915;-74
2022/03/11 15:53:28;;;;;;;;;;;;;;;;;;5072182;28;20304;-72
2022/03/11 15:55:54;;;;;;;;;;;;;;;;;;5073936;28;19938;-74
2022/03/11 15:58:20;;;;;;;;;;;;;;;;;;5072634;28;20383;-73
2022/03/11 16:00:46;;;;;;;;;;;;;;;;;;5072118;28;19950;-73
2022/03/11 16:03:13;;;;;;;;;;;;;;;;;;5072431;28;19908;-73
2022/03/11 16:05:39;;;;;;;;;;;;;;;;;;5073859;28;19912;-72
2022/03/11 16:08:05;;;;;;;;;;;;;;;;;;5073080;28;19916;-71
2022/03/11 16:10:31;;;;;;;;;;;;;;;;;;5073877;28;19909;-71
2022/03/11 16:12:58;;;;;;;;;;;;;;;;;;5073621;28;20312;-72
2022/03/11 16:15:24;;;;;;;;;;;;;;;;;;5072033;28;19909;-72
2022/03/11 16:17:51;;;;;;;;;;;;;;;;;;5073668;28;19909;-72
2022/03/11 16:20:17;;;;;;;;;;;;;;;;;;5073976;28;19908;-72
2022/03/11 16:22:43;;;;;;;;;;;;;;;;;;5073074;28;19962;-73
2022/03/11 16:25:10;;;;;;;;;;;;;;;;;;5073452;28;19935;-72
2022/03/11 16:27:37;;;;;;;;;;;;;;;;;;5072125;28;19913;-72
2022/03/11 16:30:03;;;;;;;;;;;;;;;;;;5071832;28;19908;-71
2022/03/11 16:32:31;;;;;;;;;;;;;;;;;;5073235;28;19966;-72
2022/03/11 16:34:57;;;;;;;;;;;;;;;;;;5073423;28;19912;-71
2022/03/11 16:37:23;;;;;;;;;;;;;;;;;;5072983;28;19912;-72
2022/03/11 16:39:49;;;;;;;;;;;;;;;;;;5072222;28;20383;-73
2022/03/11 16:42:15;;;;;;;;;;;;;;;;;;5073563;28;19954;-73